createdAt,value
2024-04-13T00:00:56.125Z,100566.73
2024-04-13T00:03:25.138Z,100567.14
2024-04-13T00:05:52.716Z,100567.24
2024-04-13T00:08:20.144Z,100563.65
2024-04-13T00:10:47.665Z,100567.78
2024-04-13T00:13:15.983Z,100565.55
2024-04-13T00:15:43.437Z,100561.94
2024-04-13T00:18:11.072Z,100557.17
2024-04-13T00:20:38.587Z,100556.94
2024-04-13T00:23:06.017Z,100556.14
2024-04-13T00:25:33.508Z,100551.66
2024-04-13T00:28:00.944Z,100554.53
2024-04-13T00:30:28.394Z,100551.98
2024-04-13T00:32:55.957Z,100549.36
2024-04-13T00:35:24.053Z,100548.27
2024-04-13T00:37:51.685Z,100545.16
2024-04-13T00:40:19.163Z,100546.49
2024-04-13T00:42:46.586Z,100542.56
2024-04-13T00:45:14.084Z,100541.94
2024-04-13T00:47:41.969Z,100534.49
2024-04-13T00:50:13.268Z,100536.22
2024-04-13T00:52:44.439Z,100539.61
2024-04-13T00:55:11.971Z,100536.36
2024-04-13T00:57:40.494Z,100531.36
2024-04-13T01:00:08.456Z,100528.13
2024-04-13T01:02:35.943Z,100519.99
2024-04-13T01:05:03.429Z,100520.66
2024-04-13T01:07:30.891Z,100516.48
2024-04-13T01:09:59.581Z,100517.15
2024-04-13T01:12:27.897Z,100514.94
2024-04-13T01:14:56.011Z,100515.26
2024-04-13T01:17:23.558Z,100514.92
2024-04-13T01:19:51.021Z,100512.35
2024-04-13T01:22:20.124Z,100512.09
2024-04-13T01:24:47.616Z,100515.13
2024-04-13T01:27:15.105Z,100511.48
2024-04-13T01:29:42.572Z,100515.01
2024-04-13T01:32:10.069Z,100511.93
2024-04-13T01:34:37.542Z,100511.19
2024-04-13T01:37:05.134Z,100510.63
2024-04-13T01:39:32.993Z,100511.52
2024-04-13T01:42:00.522Z,100506.67
2024-04-13T01:44:28.323Z,100506.54
2024-04-13T01:46:59.537Z,100504.02
2024-04-13T01:49:26.975Z,100506.32
2024-04-13T01:51:54.445Z,100498.01
2024-04-13T01:54:21.902Z,100496.24
2024-04-13T01:56:49.442Z,100492.42
2024-04-13T01:59:16.893Z,100492.25
2024-04-13T02:01:44.331Z,100494.18
2024-04-13T02:04:12.449Z,100490.95
2024-04-13T02:06:40.210Z,100490.95
2024-04-13T02:09:07.885Z,100488.96
2024-04-13T02:11:35.317Z,100487.55
2024-04-13T02:14:02.774Z,100484.89
2024-04-13T02:16:30.691Z,100479.70
2024-04-13T02:18:58.235Z,100484.14
2024-04-13T02:21:25.894Z,100478.75
2024-04-13T02:23:55.059Z,100482.54
2024-04-13T02:26:22.540Z,100477.52
2024-04-13T02:28:50.073Z,100477.00
2024-04-13T02:31:18.349Z,100480.58
2024-04-13T02:33:46.002Z,100478.45
2024-04-13T02:36:14.048Z,100478.15
2024-04-13T02:38:43.150Z,100475.69
2024-04-13T02:41:10.781Z,100474.14
2024-04-13T02:43:38.364Z,100475.92
2024-04-13T02:46:10.421Z,100477.16
2024-04-13T02:48:43.130Z,100476.48
2024-04-13T02:51:11.431Z,100478.39
2024-04-13T02:53:39.082Z,100474.17
2024-04-13T02:56:07.788Z,100475.80
2024-04-13T02:58:35.385Z,100476.35
2024-04-13T03:01:03.905Z,100475.63
2024-04-13T03:03:31.781Z,100472.03
2024-04-13T03:06:04.678Z,100473.09
2024-04-13T03:08:32.376Z,100472.15
2024-04-13T03:11:00.956Z,100468.40
2024-04-13T03:13:29.152Z,100467.48
2024-04-13T03:16:01.017Z,100461.62
2024-04-13T03:18:28.629Z,100464.90
2024-04-13T03:20:56.500Z,100464.13
2024-04-13T03:23:24.768Z,100463.40
2024-04-13T03:25:52.329Z,100464.16
2024-04-13T03:28:29.231Z,100467.36
2024-04-13T03:30:56.908Z,100470.65
2024-04-13T03:33:25.086Z,100471.52
2024-04-13T03:35:52.852Z,100474.63
2024-04-13T03:38:20.506Z,100472.35
2024-04-13T03:40:48.121Z,100472.55
2024-04-13T03:43:16.300Z,100472.29
2024-04-13T03:45:53.135Z,100476.76
2024-04-13T03:48:21.035Z,100478.52
2024-04-13T03:50:48.803Z,100480.09
2024-04-13T03:53:16.477Z,100481.44
2024-04-13T03:55:44.125Z,100479.22
2024-04-13T03:58:11.768Z,100480.02
2024-04-13T04:00:39.557Z,100476.88
2024-04-13T04:03:07.306Z,100475.05
2024-04-13T04:05:35.030Z,100478.09
2024-04-13T04:08:02.689Z,100476.44
2024-04-13T04:10:30.396Z,100471.16
2024-04-13T04:13:02.272Z,100467.69
2024-04-13T04:15:30.228Z,100470.85
2024-04-13T04:17:58.102Z,100473.81
2024-04-13T04:20:26.140Z,100474.39
2024-04-13T04:22:53.953Z,100476.41
2024-04-13T04:25:21.724Z,100477.71
2024-04-13T04:27:51.249Z,100477.40
2024-04-13T04:30:21.264Z,100474.98
2024-04-13T04:32:51.387Z,100477.34
2024-04-13T04:35:21.294Z,100477.85
2024-04-13T04:37:51.237Z,100480.18
2024-04-13T04:40:24.305Z,100478.56
2024-04-13T04:42:55.001Z,100476.59
2024-04-13T04:45:24.647Z,100477.92
2024-04-13T04:47:56.960Z,100479.16
2024-04-13T04:50:28.285Z,100482.23
2024-04-13T04:52:58.433Z,100479.91
2024-04-13T04:55:29.175Z,100478.98
2024-04-13T04:57:59.598Z,100476.53
2024-04-13T05:00:30.353Z,100475.56
2024-04-13T05:03:00.488Z,100470.59
2024-04-13T05:05:30.701Z,100469.83
2024-04-13T05:08:00.445Z,100464.27
2024-04-13T05:10:31.344Z,100462.02
2024-04-13T05:13:03.350Z,100461.61
2024-04-13T05:15:34.422Z,100455.03
2024-04-13T05:18:06.534Z,100449.93
2024-04-13T05:20:38.414Z,100448.73
2024-04-13T05:23:09.363Z,100442.51
2024-04-13T05:25:39.509Z,100441.05
2024-04-13T05:35:49.744Z,100427.36
2024-04-13T05:38:17.233Z,100419.95
2024-04-13T05:40:44.751Z,100412.91
2024-04-13T05:43:13.356Z,100406.08
2024-04-13T05:45:41.238Z,100402.84
2024-04-13T05:48:08.857Z,100405.86
2024-04-13T05:50:36.442Z,100400.72
2024-04-13T05:53:04.319Z,100401.81
2024-04-13T05:55:32.522Z,100402.63
2024-04-13T05:57:59.970Z,100402.40
2024-04-13T06:00:27.787Z,100398.82
2024-04-13T06:02:55.433Z,100397.85
2024-04-13T06:05:23.220Z,100395.48
2024-04-13T06:07:54.472Z,100398.78
2024-04-13T06:10:22.305Z,100399.33
2024-04-13T06:12:49.782Z,100399.16
2024-04-13T06:15:17.875Z,100395.08
2024-04-13T06:17:45.441Z,100395.02
2024-04-13T06:20:12.903Z,100388.71
2024-04-13T06:22:40.376Z,100383.45
2024-04-13T06:32:51.976Z,100373.66
2024-04-13T06:42:58.341Z,100360.08
2024-04-13T06:45:25.897Z,100354.92
2024-04-13T06:47:53.454Z,100352.60
2024-04-13T06:50:20.984Z,100351.67
2024-04-13T06:52:48.778Z,100349.95
2024-04-13T06:55:17.865Z,100351.17
2024-04-13T06:57:45.378Z,100354.84
2024-04-13T07:00:13.335Z,100351.38
2024-04-13T07:02:41.566Z,100352.84
2024-04-13T07:05:09.349Z,100352.69
2024-04-13T07:07:38.010Z,100348.58
2024-04-13T07:10:06.545Z,100350.13
2024-04-13T07:12:34.300Z,100350.67
2024-04-13T07:15:02.149Z,100348.30
2024-04-13T07:17:29.848Z,100346.73
2024-04-13T07:21:06.881Z,100350.42
2024-04-13T07:23:34.359Z,100345.35
2024-04-13T07:26:02.410Z,100340.55
2024-04-13T07:28:31.235Z,100345.33
2024-04-13T07:30:59.592Z,100346.06
2024-04-13T07:33:27.572Z,100343.34
2024-04-13T07:43:38.996Z,100338.39
2024-04-13T07:46:06.644Z,100339.45
2024-04-13T07:48:34.320Z,100340.05
2024-04-13T07:51:03.262Z,100341.55
2024-04-13T07:53:32.032Z,100336.61
2024-04-13T07:56:00.017Z,100338.09
2024-04-13T07:58:27.574Z,100329.36
2024-04-13T08:00:55.182Z,100331.69
2024-04-13T08:03:24.876Z,100334.08
2024-04-13T08:05:52.635Z,100330.40
2024-04-13T08:08:20.253Z,100331.20
2024-04-13T08:10:48.142Z,100325.67
2024-04-13T08:13:16.612Z,100323.86
2024-04-13T08:15:44.345Z,100318.98
2024-04-13T08:18:12.037Z,100315.19
2024-04-13T08:20:40.364Z,100315.63
2024-04-13T08:23:08.790Z,100311.92
2024-04-13T08:25:36.333Z,100306.98
2024-04-13T08:28:04.282Z,100307.10
2024-04-13T08:30:32.037Z,100302.70
2024-04-13T08:33:00.514Z,100301.10
2024-04-13T08:35:28.257Z,100306.04
2024-04-13T08:37:55.717Z,100299.95
2024-04-13T08:40:23.072Z,100298.80
2024-04-13T08:42:53.653Z,100292.14
2024-04-13T08:45:24.189Z,100289.98
2024-04-13T08:47:51.769Z,100286.89
2024-04-13T08:50:19.194Z,100281.16
2024-04-13T08:52:57.850Z,100288.53
2024-04-13T08:55:25.593Z,100287.05
2024-04-13T08:57:52.960Z,100288.27
2024-04-13T09:00:20.974Z,100285.70
2024-04-13T09:02:48.464Z,100287.27
2024-04-13T09:05:16.385Z,100285.66
2024-04-13T09:07:46.270Z,100284.79
2024-04-13T09:10:16.277Z,100277.85
2024-04-13T09:12:43.755Z,100277.73
2024-04-13T09:15:11.819Z,100274.60
2024-04-13T09:17:40.010Z,100270.17
2024-04-13T09:20:09.422Z,100265.78
2024-04-13T09:22:37.490Z,100264.33
2024-04-13T09:25:04.984Z,100257.74
2024-04-13T09:27:34.266Z,100253.16
2024-04-13T09:30:09.310Z,100246.76
2024-04-13T09:32:36.994Z,100237.99
2024-04-13T09:35:11.566Z,100233.77
2024-04-13T09:37:39.361Z,100228.38
2024-04-13T09:40:07.719Z,100218.97
2024-04-13T09:42:35.263Z,100218.93
2024-04-13T09:45:12.208Z,100214.58
2024-04-13T09:47:39.731Z,100210.14
2024-04-13T09:50:07.278Z,100202.89
2024-04-13T09:52:35.057Z,100204.09
2024-04-13T09:55:02.518Z,100208.60
2024-04-13T09:57:29.922Z,100211.99
2024-04-13T09:59:57.364Z,100205.17
2024-04-13T10:02:24.755Z,100201.13
2024-04-13T10:04:52.099Z,100199.97
2024-04-13T10:07:19.474Z,100201.25
2024-04-13T10:09:48.678Z,100193.34
2024-04-13T10:12:21.158Z,100189.41
2024-04-13T10:14:48.548Z,100185.88
2024-04-13T10:17:16.024Z,100177.11
2024-04-13T10:19:46.088Z,100175.59
2024-04-13T10:22:23.901Z,100175.98
2024-04-13T10:25:03.777Z,100176.00
2024-04-13T10:27:32.897Z,100165.52
2024-04-13T10:30:00.740Z,100164.05
2024-04-13T10:32:28.685Z,100165.30
2024-04-13T10:34:59.442Z,100164.02
2024-04-13T10:37:27.887Z,100168.16
2024-04-13T10:39:59.078Z,100162.92
2024-04-13T10:42:42.098Z,100163.05
2024-04-13T10:45:16.410Z,100154.48
2024-04-13T10:47:44.214Z,100150.17
2024-04-13T10:50:12.163Z,100150.31
2024-04-13T10:52:39.497Z,100143.51
2024-04-13T10:55:07.064Z,100133.39
2024-04-13T10:57:34.462Z,100130.59
2024-04-13T11:00:02.199Z,100135.16
2024-04-13T11:02:29.766Z,100129.48
2024-04-13T11:04:57.316Z,100120.96
2024-04-13T11:07:24.772Z,100122.14
2024-04-13T11:09:52.203Z,100115.65
2024-04-13T11:12:19.595Z,100114.45
2024-04-13T11:14:48.436Z,100109.31
2024-04-13T11:17:16.224Z,100105.36
2024-04-13T11:19:43.828Z,100109.77
2024-04-13T11:22:11.309Z,100109.19
2024-04-13T11:24:39.014Z,100102.79
2024-04-13T11:27:06.761Z,100098.27
2024-04-13T11:29:34.726Z,100093.38
2024-04-13T11:32:02.729Z,100093.23
2024-04-13T11:34:30.132Z,100096.65
2024-04-13T11:37:04.094Z,100094.47
2024-04-13T11:39:38.081Z,100090.21
2024-04-13T11:42:07.016Z,100082.86
2024-04-13T11:44:37.968Z,100080.55
2024-04-13T11:47:05.478Z,100077.90
2024-04-13T11:49:35.045Z,100078.52
2024-04-13T11:52:04.450Z,100072.60
2024-04-13T11:54:32.473Z,100075.28
2024-04-13T11:56:59.951Z,100074.98
2024-04-13T11:59:27.263Z,100070.11
2024-04-13T12:01:55.509Z,100071.56
2024-04-13T12:04:23.303Z,100063.41
2024-04-13T12:06:50.992Z,100062.46
2024-04-13T12:09:18.415Z,100058.18
2024-04-13T12:11:45.716Z,100060.57
2024-04-13T12:14:15.098Z,100056.77
2024-04-13T12:16:45.305Z,100056.61
2024-04-13T12:19:12.754Z,100054.84
2024-04-13T12:21:40.230Z,100047.97
2024-04-13T12:24:07.891Z,100044.87
2024-04-13T12:26:35.723Z,100055.02
2024-04-13T12:29:03.051Z,100054.02
2024-04-13T12:31:30.340Z,100053.13
2024-04-13T12:33:57.723Z,100048.26
2024-04-13T12:36:25.070Z,100047.42
2024-04-13T12:38:52.514Z,100044.18
2024-04-13T12:41:19.812Z,100038.79
2024-04-13T12:43:47.141Z,100034.95
2024-04-13T12:46:14.415Z,100034.70
2024-04-13T12:48:42.342Z,100039.58
2024-04-13T12:51:09.736Z,100037.73
2024-04-13T12:53:37.022Z,100035.06
2024-04-13T12:56:04.682Z,100028.92
2024-04-13T12:58:31.995Z,100025.35
2024-04-13T13:00:59.323Z,100028.81
2024-04-13T13:03:27.584Z,100024.19
2024-04-13T13:05:55.924Z,100025.58
2024-04-13T13:08:24.394Z,100024.97
2024-04-13T13:10:51.691Z,100020.48
2024-04-13T13:13:18.996Z,100022.73
2024-04-13T13:15:46.641Z,100024.04
2024-04-13T13:18:14.005Z,100016.08
2024-04-13T13:20:44.380Z,100021.18
2024-04-13T13:23:11.759Z,100016.13
2024-04-13T13:25:39.036Z,100016.66
2024-04-13T13:28:07.431Z,100010.80
2024-04-13T13:30:38.758Z,100011.12
2024-04-13T13:33:06.223Z,100007.23
2024-04-13T13:35:33.611Z,100008.30
2024-04-13T13:38:01.002Z,100006.77
2024-04-13T13:40:29.680Z,100007.52
2024-04-13T13:42:57.181Z,100008.58
2024-04-13T13:45:24.627Z,100007.86
2024-04-13T13:47:52.473Z,100001.52
2024-04-13T13:50:20.008Z,100000.34
2024-04-13T13:52:50.125Z,99994.61
2024-04-13T13:55:19.146Z,99991.67
2024-04-13T13:57:46.686Z,99995.20
2024-04-13T14:00:14.559Z,99988.70
2024-04-13T14:02:41.923Z,99989.38
2024-04-13T14:05:09.707Z,99986.51
2024-04-13T14:07:37.387Z,99985.91
2024-04-13T14:10:05.182Z,99977.76
2024-04-13T14:17:32.459Z,99982.95
2024-04-13T14:19:59.888Z,99967.05
2024-04-13T14:22:28.990Z,99967.27
2024-04-13T14:24:55.931Z,99972.05
2024-04-13T14:27:23.287Z,99967.05
2024-04-13T14:29:50.273Z,99962.55
2024-04-13T14:32:17.123Z,99960.80
2024-04-13T14:34:44.336Z,99953.21
2024-04-13T14:37:11.333Z,99952.83
2024-04-13T14:39:39.538Z,99950.56
2024-04-13T14:42:07.819Z,99952.64
2024-04-13T14:44:36.333Z,99948.36
2024-04-13T14:47:05.287Z,99957.64
2024-04-13T14:49:32.419Z,99954.93
2024-04-13T14:51:59.414Z,99947.40
2024-04-13T14:54:27.754Z,99944.67
2024-04-13T14:56:54.570Z,99941.11
2024-04-13T14:59:21.741Z,99942.02
2024-04-13T15:01:48.690Z,99943.09
2024-04-13T15:04:15.797Z,99945.86
2024-04-13T15:06:42.870Z,99951.59
2024-04-13T15:09:09.699Z,99948.46
2024-04-13T15:11:37.044Z,99946.71
2024-04-13T15:14:03.928Z,99951.89
2024-04-13T15:16:30.864Z,99946.20
2024-04-13T15:18:58.877Z,99954.01
2024-04-13T15:21:26.027Z,99955.15
2024-04-13T15:23:58.245Z,99956.43
2024-04-13T15:26:43.105Z,99951.02
2024-04-13T15:29:32.196Z,99948.34
2024-04-13T15:32:00.119Z,99948.71
2024-04-13T15:34:27.862Z,99945.38
2024-04-13T15:36:55.314Z,99947.37
2024-04-13T15:39:23.166Z,99943.45
2024-04-13T15:41:50.435Z,99945.20
2024-04-13T15:44:20.632Z,99946.86
2024-04-13T15:46:48.060Z,99947.08
2024-04-13T15:49:30.281Z,99947.09
2024-04-13T15:51:57.456Z,99950.30
2024-04-13T15:54:24.283Z,99955.82
2024-04-13T15:56:51.208Z,99953.27
2024-04-13T15:59:17.965Z,99954.13
2024-04-13T16:01:46.233Z,99951.90
2024-04-13T16:04:13.262Z,99952.78
2024-04-13T16:06:41.037Z,99955.91
2024-04-13T16:09:08.348Z,99955.86
2024-04-13T16:11:35.097Z,99960.25
2024-04-13T16:14:02.317Z,99963.13
2024-04-13T16:16:32.150Z,99965.25
2024-04-13T16:19:01.632Z,99965.98
2024-04-13T16:21:29.287Z,99965.46
2024-04-13T16:23:56.102Z,99958.50
2024-04-13T16:26:23.066Z,99970.02
2024-04-13T16:28:49.975Z,99970.58
2024-04-13T16:31:16.860Z,99968.52
2024-04-13T16:33:43.742Z,99969.96
2024-04-13T16:36:10.698Z,99970.94
2024-04-13T16:38:37.485Z,99969.45
2024-04-13T16:41:04.992Z,99968.55
2024-04-13T16:43:34.562Z,99968.46
2024-04-13T16:46:01.425Z,99973.69
2024-04-13T16:48:28.454Z,99974.54
2024-04-13T16:50:59.397Z,99980.23
2024-04-13T16:53:26.901Z,99981.84
2024-04-13T16:55:53.745Z,99986.59
2024-04-13T16:58:20.933Z,99985.61
2024-04-13T17:00:48.148Z,99989.88
2024-04-13T17:03:15.984Z,99991.38
2024-04-13T17:05:43.092Z,99994.55
2024-04-13T17:08:10.368Z,99992.52
2024-04-13T17:10:37.211Z,99990.75
2024-04-13T17:13:04.806Z,99996.61
2024-04-13T17:15:31.663Z,99996.71
2024-04-13T17:17:59.170Z,99998.54
2024-04-13T17:20:26.147Z,100006.29
2024-04-13T17:22:53.293Z,100008.15
2024-04-13T17:25:22.791Z,100006.91
2024-04-13T17:27:50.087Z,100007.40
2024-04-13T17:30:17.148Z,100011.17
2024-04-13T17:32:43.995Z,100011.13
2024-04-13T17:35:10.713Z,100015.00
2024-04-13T17:37:37.791Z,100015.25
2024-04-13T17:40:06.317Z,100016.98
2024-04-13T17:42:33.151Z,100018.40
2024-04-13T17:44:59.850Z,100024.52
2024-04-13T17:47:26.710Z,100026.30
2024-04-13T17:49:54.016Z,100031.81
2024-04-13T17:52:20.731Z,100029.27
2024-04-13T17:54:47.761Z,100030.30
2024-04-13T17:57:14.995Z,100027.59
2024-04-13T17:59:41.641Z,100033.98
2024-04-13T18:02:08.557Z,100032.56
2024-04-13T18:04:36.536Z,100034.15
2024-04-13T18:07:03.883Z,100038.52
2024-04-13T18:09:30.566Z,100040.86
2024-04-13T18:11:57.354Z,100041.93
2024-04-13T18:14:24.094Z,100044.36
2024-04-13T18:16:50.948Z,100041.42
2024-04-13T18:19:17.816Z,100050.39
2024-04-13T18:21:44.508Z,100048.69
2024-04-13T18:24:14.435Z,100046.15
2024-04-13T18:26:41.942Z,100044.86
2024-04-13T18:29:08.576Z,100046.97
2024-04-13T18:31:37.400Z,100046.89
2024-04-13T18:34:06.420Z,100046.14
2024-04-13T18:36:33.626Z,100048.66
2024-04-13T18:39:00.394Z,100042.10
2024-04-13T18:41:27.215Z,100050.94
2024-04-13T18:43:54.172Z,100049.29
2024-04-13T18:46:20.909Z,100046.31
2024-04-13T18:48:48.245Z,100046.86
2024-04-13T18:51:15.149Z,100042.13
2024-04-13T18:53:42.170Z,100049.38
2024-04-13T18:56:11.816Z,100048.05
2024-04-13T18:58:38.593Z,100049.45
2024-04-13T19:01:08.635Z,100050.25
2024-04-13T19:03:42.817Z,100049.91
2024-04-13T19:06:16.417Z,100050.16
2024-04-13T19:08:43.542Z,100048.39
2024-04-13T19:11:10.227Z,100051.66
2024-04-13T19:16:22.669Z,100051.50
2024-04-13T19:18:49.685Z,100049.34
2024-04-13T19:21:16.439Z,100054.38
2024-04-13T19:23:43.484Z,100053.30
2024-04-13T19:26:10.307Z,100053.10
2024-04-13T19:28:37.335Z,100052.75
2024-04-13T19:31:04.546Z,100051.02
2024-04-13T19:33:31.717Z,100051.55
2024-04-13T19:35:58.640Z,100052.98
2024-04-13T19:38:26.158Z,100053.54
2024-04-13T19:40:53.070Z,100052.17
2024-04-13T19:43:20.227Z,100053.13
2024-04-13T19:45:47.989Z,100053.17
2024-04-13T19:48:15.092Z,100052.04
2024-04-13T19:50:42.526Z,100056.14
2024-04-13T19:53:10.472Z,100058.09
2024-04-13T19:55:37.171Z,100055.41
2024-04-13T19:58:04.158Z,100057.40
2024-04-13T20:00:31.362Z,100054.61
2024-04-13T20:02:58.302Z,100057.02
2024-04-13T20:05:25.114Z,100061.44
2024-04-13T20:07:51.899Z,100061.86
2024-04-13T20:10:18.777Z,100057.48
2024-04-13T20:12:47.115Z,100063.47
2024-04-13T20:15:32.687Z,100059.58
2024-04-13T20:18:18.004Z,100057.89
2024-04-13T20:20:44.808Z,100054.44
2024-04-13T20:23:11.533Z,100054.56
2024-04-13T20:25:39.597Z,100058.45
2024-04-13T20:28:06.580Z,100056.80
2024-04-13T20:30:34.058Z,100055.94
2024-04-13T20:33:01.547Z,100058.19
2024-04-13T20:35:28.917Z,100049.80
2024-04-13T20:37:56.332Z,100054.80
2024-04-13T20:40:23.520Z,100050.44
2024-04-13T20:42:50.837Z,100051.27
2024-04-13T20:45:18.395Z,100050.98
2024-04-13T20:47:45.805Z,100053.60
2024-04-13T20:50:13.475Z,100052.41
2024-04-13T20:52:52.505Z,100055.11
2024-04-13T20:55:25.526Z,100047.65
2024-04-13T20:57:54.032Z,100053.44
2024-04-13T21:00:21.159Z,100056.16
2024-04-13T21:02:48.932Z,100057.09
2024-04-13T21:05:16.993Z,100064.71
2024-04-13T21:07:44.167Z,100063.00
2024-04-13T21:10:11.849Z,100068.91
2024-04-13T21:12:39.188Z,100069.24
2024-04-13T21:15:07.504Z,100064.84
2024-04-13T21:17:34.614Z,100062.80
2024-04-13T21:20:01.640Z,100057.34
2024-04-13T21:22:29.351Z,100054.48
2024-04-13T21:24:57.616Z,100056.11
2024-04-13T21:27:24.829Z,100059.02
2024-04-13T21:29:51.837Z,100057.95
2024-04-13T21:32:20.133Z,100062.35
2024-04-13T21:34:50.616Z,100064.27
2024-04-13T21:37:18.147Z,100059.36
2024-04-13T21:39:45.545Z,100059.76
2024-04-13T21:42:13.424Z,100056.20
2024-04-13T21:44:40.762Z,100052.20
2024-04-13T21:47:09.395Z,100058.05
2024-04-13T21:49:37.614Z,100057.08
2024-04-13T21:52:05.403Z,100059.48
2024-04-13T21:54:32.400Z,100063.34
2024-04-13T21:56:59.664Z,100060.75
2024-04-13T21:59:27.366Z,100056.58
2024-04-13T22:01:54.415Z,100056.40
2024-04-13T22:04:23.454Z,100054.91
2024-04-13T22:06:50.695Z,100059.91
2024-04-13T22:09:17.904Z,100059.14
2024-04-13T22:11:49.901Z,100055.20
2024-04-13T22:14:17.231Z,100056.48
2024-04-13T22:16:44.229Z,100058.35
2024-04-13T22:19:11.620Z,100056.98
2024-04-13T22:21:38.711Z,100053.33
2024-04-13T22:24:06.502Z,100054.27
2024-04-13T22:26:35.929Z,100055.17
2024-04-13T22:29:03.210Z,100063.57
2024-04-13T22:31:30.253Z,100064.93
2024-04-13T22:33:58.950Z,100069.08
2024-04-13T22:36:31.312Z,100074.44
2024-04-13T22:38:58.578Z,100077.85
2024-04-13T22:41:25.423Z,100079.81
2024-04-13T22:43:52.219Z,100078.94
2024-04-13T22:46:19.129Z,100083.45
2024-04-13T22:48:47.076Z,100086.75
2024-04-13T22:51:14.106Z,100085.61
2024-04-13T22:53:41.153Z,100086.83
2024-04-13T22:56:08.265Z,100092.22
2024-04-13T22:58:35.757Z,100089.25
2024-04-13T23:01:03.827Z,100093.46
2024-04-13T23:03:31.038Z,100094.63
2024-04-13T23:06:00.513Z,100099.27
2024-04-13T23:08:27.411Z,100103.70
2024-04-13T23:10:54.810Z,100107.36
2024-04-13T23:13:21.947Z,100112.62
2024-04-13T23:15:49.944Z,100115.40
2024-04-13T23:18:21.858Z,100113.14
2024-04-13T23:20:52.208Z,100114.33
2024-04-13T23:23:19.356Z,100116.56
2024-04-13T23:25:47.370Z,100125.13
2024-04-13T23:28:14.922Z,100123.83
2024-04-13T23:30:42.080Z,100126.23
2024-04-13T23:33:10.648Z,100123.65
2024-04-13T23:35:37.695Z,100119.02
2024-04-13T23:38:04.713Z,100116.16
2024-04-13T23:40:31.807Z,100114.58
2024-04-13T23:42:58.692Z,100107.48
2024-04-13T23:45:26.622Z,100109.85
2024-04-13T23:47:53.782Z,100110.32
2024-04-13T23:50:22.672Z,100111.44
2024-04-13T23:52:49.727Z,100114.58
2024-04-13T23:55:17.560Z,100115.52
2024-04-13T23:57:45.621Z,100113.53
